createdAt,value
2019-03-15T00:01:38.576Z,69.32
2019-03-15T00:04:07.136Z,68.79
2019-03-15T00:06:35.752Z,68.97
2019-03-15T00:09:07.518Z,68.94
2019-03-15T00:11:36.059Z,68.87
2019-03-15T00:14:04.837Z,70.40
2019-03-15T00:16:33.400Z,69.00
2019-03-15T00:19:02.051Z,68.66
2019-03-15T00:21:30.758Z,68.26
2019-03-15T00:23:59.379Z,68.81
2019-03-15T00:26:27.952Z,68.95
2019-03-15T00:28:56.502Z,68.22
2019-03-15T00:31:25.023Z,68.55
2019-03-15T00:33:53.633Z,68.89
2019-03-15T00:36:22.218Z,69.42
2019-03-15T00:38:51.047Z,69.46
2019-03-15T00:41:19.664Z,68.73
2019-03-15T00:43:49.568Z,68.81
2019-03-15T00:46:18.332Z,69.01
2019-03-15T00:48:46.881Z,70.60
2019-03-15T00:51:15.465Z,69.46
2019-03-15T00:53:44.755Z,68.29
2019-03-15T00:56:13.290Z,68.15
2019-03-15T00:58:41.901Z,68.38
2019-03-15T01:01:10.600Z,68.85
2019-03-15T01:03:39.373Z,68.71
2019-03-15T01:06:08.775Z,68.67
2019-03-15T01:08:37.316Z,68.34
2019-03-15T01:11:05.926Z,67.90
2019-03-15T01:13:34.532Z,68.07
2019-03-15T01:16:03.110Z,68.41
2019-03-15T01:18:31.578Z,68.10
2019-03-15T01:21:00.199Z,67.94
2019-03-15T01:23:28.781Z,68.44
2019-03-15T01:25:57.355Z,69.81
2019-03-15T01:28:25.921Z,67.60
2019-03-15T01:30:55.676Z,67.90
2019-03-15T01:33:24.299Z,67.05
2019-03-15T01:35:52.889Z,67.50
2019-03-15T01:38:23.180Z,67.29
2019-03-15T01:40:51.608Z,67.43
2019-03-15T01:43:20.118Z,67.09
2019-03-15T01:45:49.550Z,67.82
2019-03-15T01:48:18.153Z,68.02
2019-03-15T01:50:46.732Z,68.43
2019-03-15T01:53:15.786Z,68.20
2019-03-15T01:55:44.311Z,67.71
2019-03-15T01:58:12.945Z,68.21
2019-03-15T02:00:41.516Z,69.67
2019-03-15T02:03:10.102Z,66.84
2019-03-15T02:05:38.672Z,66.47
2019-03-15T02:08:07.225Z,67.59
2019-03-15T02:10:35.955Z,67.13
2019-03-15T02:13:04.530Z,67.12
2019-03-15T02:15:33.186Z,67.77
2019-03-15T02:18:01.756Z,68.47
2019-03-15T02:20:30.344Z,67.41
2019-03-15T02:22:58.977Z,68.80
2019-03-15T02:25:27.734Z,68.23
2019-03-15T02:27:56.283Z,67.68
2019-03-15T02:30:24.823Z,67.73
2019-03-15T02:32:53.462Z,68.66
2019-03-15T02:35:21.893Z,70.69
2019-03-15T02:37:50.479Z,68.36
2019-03-15T02:40:19.005Z,67.33
2019-03-15T02:42:47.701Z,67.83
2019-03-15T02:45:16.781Z,68.51
2019-03-15T02:47:46.298Z,68.11
2019-03-15T02:50:15.503Z,69.15
2019-03-15T02:52:44.007Z,68.97
2019-03-15T02:55:12.591Z,68.25
2019-03-15T02:57:41.137Z,68.43
2019-03-15T03:02:32.346Z,68.99
2019-03-15T03:05:00.893Z,67.42
2019-03-15T03:07:29.482Z,68.42
2019-03-15T03:09:58.007Z,68.91
2019-03-15T03:12:26.626Z,69.71
2019-03-15T03:14:55.101Z,67.45
2019-03-15T03:17:23.686Z,68.77
2019-03-15T03:19:52.278Z,68.84
2019-03-15T03:22:21.001Z,68.04
2019-03-15T03:24:50.903Z,67.76
2019-03-15T03:27:19.708Z,68.36
2019-03-15T03:29:48.210Z,68.46
2019-03-15T03:32:17.508Z,69.26
2019-03-15T03:34:46.157Z,68.88
2019-03-15T03:37:14.737Z,68.84
2019-03-15T03:39:43.255Z,68.97
2019-03-15T03:42:11.967Z,69.16
2019-03-15T03:44:40.481Z,69.38
2019-03-15T03:47:09.046Z,73.10
2019-03-15T03:49:37.575Z,69.20
2019-03-15T03:52:06.197Z,68.81
2019-03-15T03:54:34.829Z,69.26
2019-03-15T03:57:03.837Z,68.77
2019-03-15T03:59:32.545Z,68.08
2019-03-15T04:02:01.936Z,68.59
2019-03-15T04:04:30.669Z,69.25
2019-03-15T04:06:59.245Z,69.30
2019-03-15T04:09:27.996Z,69.92
2019-03-15T04:11:56.556Z,69.67
2019-03-15T04:14:25.193Z,69.28
2019-03-15T04:16:53.640Z,68.83
2019-03-15T04:19:22.206Z,69.28
2019-03-15T04:21:50.644Z,70.07
2019-03-15T04:24:19.110Z,69.04
2019-03-15T04:26:48.652Z,68.35
2019-03-15T04:29:17.225Z,68.38
2019-03-15T04:31:45.923Z,68.00
2019-03-15T04:34:14.486Z,68.39
2019-03-15T04:36:43.031Z,68.30
2019-03-15T04:39:13.961Z,68.50
2019-03-15T04:41:41.951Z,68.91
2019-03-15T04:44:10.831Z,68.56
2019-03-15T04:46:39.615Z,68.18
2019-03-15T04:49:08.041Z,68.07
2019-03-15T04:51:36.704Z,68.12
2019-03-15T04:54:05.832Z,68.24
2019-03-15T04:56:34.564Z,69.05
2019-03-15T04:59:03.139Z,69.07
2019-03-15T05:01:31.768Z,67.43
2019-03-15T05:04:00.287Z,67.58
2019-03-15T05:06:28.881Z,68.50
2019-03-15T05:08:57.549Z,68.03
2019-03-15T05:11:26.068Z,68.79
2019-03-15T05:13:54.662Z,68.09
2019-03-15T05:16:23.302Z,69.04
2019-03-15T05:18:51.862Z,69.02
2019-03-15T05:21:20.448Z,69.40
2019-03-15T05:23:49.765Z,68.83
2019-03-15T05:26:18.348Z,69.32
2019-03-15T05:28:46.825Z,69.37
2019-03-15T05:31:15.421Z,69.16
2019-03-15T05:33:43.930Z,70.83
2019-03-15T05:36:12.543Z,68.88
2019-03-15T05:38:41.246Z,68.77
2019-03-15T05:41:09.856Z,68.68
2019-03-15T05:43:38.372Z,68.55
2019-03-15T05:46:06.985Z,69.44
2019-03-15T05:48:35.541Z,68.91
2019-03-15T05:51:04.174Z,68.83
2019-03-15T05:53:32.835Z,69.07
2019-03-15T05:56:01.385Z,69.48
2019-03-15T05:58:30.113Z,70.47
2019-03-15T06:00:58.760Z,70.18
2019-03-15T06:03:27.406Z,71.06
2019-03-15T06:05:56.074Z,71.07
2019-03-15T06:08:27.474Z,72.96
2019-03-15T06:10:55.362Z,70.16
2019-03-15T06:13:23.955Z,69.24
2019-03-15T06:15:52.516Z,69.09
2019-03-15T06:18:21.313Z,70.49
2019-03-15T06:20:49.831Z,70.84
2019-03-15T06:23:18.439Z,71.62
2019-03-15T06:25:46.896Z,71.57
2019-03-15T06:28:15.454Z,70.99
2019-03-15T06:30:44.060Z,70.94
2019-03-15T06:33:12.785Z,71.28
2019-03-15T06:35:41.462Z,72.08
2019-03-15T06:38:10.017Z,71.82
2019-03-15T06:40:38.552Z,72.11
2019-03-15T06:43:07.168Z,74.54
2019-03-15T06:45:35.754Z,72.70
2019-03-15T06:48:04.247Z,73.09
2019-03-15T06:50:32.839Z,71.83
2019-03-15T06:53:01.411Z,72.61
2019-03-15T06:55:29.997Z,73.51
2019-03-15T06:57:58.657Z,73.99
2019-03-15T07:00:27.232Z,73.68
2019-03-15T07:02:55.830Z,75.06
2019-03-15T07:05:24.515Z,75.13
2019-03-15T07:07:53.061Z,75.67
2019-03-15T07:10:22.084Z,75.61
2019-03-15T07:12:50.696Z,75.90
2019-03-15T07:15:19.276Z,76.53
2019-03-15T07:17:47.837Z,77.13
2019-03-15T07:20:17.128Z,77.79
2019-03-15T07:22:45.655Z,76.57
2019-03-15T07:25:14.378Z,76.42
2019-03-15T07:27:43.255Z,76.46
2019-03-15T07:30:15.722Z,76.79
2019-03-15T07:32:44.366Z,76.57
2019-03-15T07:35:12.957Z,76.96
2019-03-15T07:37:45.159Z,76.55
2019-03-15T07:40:13.386Z,76.84
2019-03-15T07:42:42.112Z,77.14
2019-03-15T07:45:14.510Z,77.50
2019-03-15T07:47:43.201Z,77.54
2019-03-15T07:50:15.633Z,77.50
2019-03-15T07:52:44.274Z,79.75
2019-03-15T07:55:13.063Z,79.75
2019-03-15T07:57:41.671Z,77.65
2019-03-15T08:00:14.895Z,77.11
2019-03-15T08:02:45.237Z,77.55
2019-03-15T08:05:13.806Z,77.72
2019-03-15T08:07:45.486Z,77.54
2019-03-15T08:10:13.413Z,78.67
2019-03-15T08:12:42.025Z,78.07
2019-03-15T08:15:14.171Z,78.44
2019-03-15T08:17:42.772Z,78.45
2019-03-15T08:20:12.675Z,78.55
2019-03-15T08:22:41.317Z,78.68
2019-03-15T08:25:11.281Z,78.20
2019-03-15T08:27:39.847Z,78.26
2019-03-15T08:30:14.086Z,78.78
2019-03-15T08:32:43.858Z,78.05
2019-03-15T08:35:13.318Z,76.94
2019-03-15T08:37:41.887Z,77.26
2019-03-15T08:40:12.054Z,76.44
2019-03-15T08:42:40.607Z,77.37
2019-03-15T08:45:22.329Z,77.55
2019-03-15T08:47:51.021Z,78.31
2019-03-15T08:50:20.646Z,78.52
2019-03-15T08:52:49.240Z,78.34
2019-03-15T08:55:17.849Z,78.28
2019-03-15T08:57:46.503Z,78.73
2019-03-15T09:00:17.151Z,78.56
2019-03-15T09:02:45.855Z,79.30
2019-03-15T09:05:18.172Z,80.71
2019-03-15T09:07:46.863Z,79.72
2019-03-15T09:10:23.329Z,79.12
2019-03-15T09:12:47.002Z,79.49
2019-03-15T09:15:15.920Z,79.32
2019-03-15T09:17:44.525Z,79.34
2019-03-15T09:20:16.610Z,80.31
2019-03-15T09:22:45.420Z,79.38
2019-03-15T09:25:19.958Z,80.06
2019-03-15T09:27:46.416Z,80.49
2019-03-15T09:30:23.778Z,80.50
2019-03-15T09:32:46.646Z,80.34
2019-03-15T09:35:15.231Z,80.30
2019-03-15T09:37:46.975Z,80.08
2019-03-15T09:40:17.386Z,80.61
2019-03-15T09:42:46.217Z,81.14
2019-03-15T09:45:16.966Z,79.52
2019-03-15T09:47:45.766Z,79.60
2019-03-15T09:50:33.873Z,79.73
2019-03-15T09:52:45.698Z,79.28
2019-03-15T09:55:14.711Z,80.12
2019-03-15T09:57:43.517Z,79.67
2019-03-15T10:00:16.025Z,79.70
2019-03-15T10:02:46.498Z,79.61
2019-03-15T10:05:15.362Z,80.50
2019-03-15T10:07:44.281Z,79.40
2019-03-15T10:10:20.435Z,80.40
2019-03-15T10:12:49.133Z,80.45
2019-03-15T10:15:18.222Z,80.70
2019-03-15T10:17:47.154Z,82.02
2019-03-15T10:20:16.663Z,79.95
2019-03-15T10:22:45.194Z,78.19
2019-03-15T10:25:15.909Z,79.26
2019-03-15T10:27:44.490Z,79.54
2019-03-15T10:30:15.563Z,79.92
2019-03-15T10:32:44.150Z,79.50
2019-03-15T10:35:12.858Z,79.38
2019-03-15T10:37:41.569Z,79.04
2019-03-15T10:40:23.797Z,78.92
2019-03-15T10:42:55.302Z,79.55
2019-03-15T10:45:22.928Z,79.36
2019-03-15T10:47:51.464Z,79.06
2019-03-15T10:50:20.361Z,79.69
2019-03-15T10:52:49.271Z,80.52
2019-03-15T10:55:20.619Z,79.94
2019-03-15T10:57:48.270Z,78.11
2019-03-15T11:00:20.437Z,77.33
2019-03-15T11:02:49.225Z,77.67
2019-03-15T11:05:17.853Z,77.08
2019-03-15T11:07:46.375Z,77.33
2019-03-15T11:10:14.900Z,77.20
2019-03-15T11:12:43.520Z,76.95
2019-03-15T11:15:13.511Z,76.28
2019-03-15T11:17:42.059Z,76.72
2019-03-15T11:20:11.603Z,76.79
2019-03-15T11:22:40.293Z,77.15
2019-03-15T11:25:10.256Z,77.75
2019-03-15T11:27:38.915Z,76.29
2019-03-15T11:30:13.564Z,76.70
2019-03-15T11:32:42.039Z,76.70
2019-03-15T11:35:11.348Z,76.95
2019-03-15T11:37:39.911Z,76.69
2019-03-15T11:40:18.930Z,78.79
2019-03-15T11:42:46.740Z,75.28
2019-03-15T11:45:15.345Z,74.45
2019-03-15T11:48:02.069Z,74.20
2019-03-15T11:50:16.168Z,74.34
2019-03-15T11:52:44.750Z,74.36
2019-03-15T11:55:13.373Z,74.42
2019-03-15T11:57:42.016Z,75.44
2019-03-15T12:00:16.491Z,74.33
2019-03-15T12:02:48.135Z,74.85
2019-03-15T12:05:16.773Z,74.85
2019-03-15T12:07:45.490Z,74.95
2019-03-15T12:10:18.060Z,75.08
2019-03-15T12:12:46.536Z,75.00
2019-03-15T12:15:17.088Z,75.08
2019-03-15T12:17:45.666Z,74.79
2019-03-15T12:20:14.490Z,74.58
2019-03-15T12:22:43.074Z,74.58
2019-03-15T12:25:12.562Z,75.54
2019-03-15T12:27:41.070Z,75.67
2019-03-15T12:30:18.959Z,74.85
2019-03-15T12:32:47.576Z,74.81
2019-03-15T12:35:16.562Z,75.05
2019-03-15T12:37:45.199Z,74.32
2019-03-15T12:40:15.126Z,74.98
2019-03-15T12:42:43.731Z,73.64
2019-03-15T12:45:13.524Z,73.20
2019-03-15T12:47:42.179Z,73.08
2019-03-15T12:50:12.814Z,73.66
2019-03-15T12:52:47.743Z,72.55
2019-03-15T12:55:12.874Z,73.06
2019-03-15T12:57:41.591Z,71.46
2019-03-15T13:00:17.980Z,71.04
2019-03-15T13:02:46.513Z,71.02
2019-03-15T13:05:15.247Z,70.93
2019-03-15T13:07:43.876Z,70.11
2019-03-15T13:10:17.835Z,69.85
2019-03-15T13:12:46.492Z,70.14
2019-03-15T13:15:16.209Z,69.96
2019-03-15T13:17:44.789Z,70.24
2019-03-15T13:20:14.664Z,69.95
2019-03-15T13:22:43.278Z,70.20
2019-03-15T13:25:12.640Z,69.96
2019-03-15T13:27:41.324Z,69.76
2019-03-15T13:30:14.423Z,70.29
2019-03-15T13:32:43.061Z,69.20
2019-03-15T13:35:11.912Z,70.36
2019-03-15T13:37:42.766Z,70.28
2019-03-15T13:40:18.563Z,69.77
2019-03-15T13:42:47.246Z,69.75
2019-03-15T13:45:16.543Z,69.86
2019-03-15T13:47:45.131Z,70.10
2019-03-15T13:50:21.316Z,69.85
2019-03-15T13:52:49.908Z,70.16
2019-03-15T13:55:18.524Z,69.84
2019-03-15T13:57:47.185Z,69.95
2019-03-15T14:00:17.382Z,72.80
2019-03-15T14:02:46.015Z,75.14
2019-03-15T14:05:14.818Z,69.24
2019-03-15T14:07:43.423Z,69.71
2019-03-15T14:10:13.892Z,70.21
2019-03-15T14:12:42.527Z,70.23
2019-03-15T14:15:18.560Z,70.80
2019-03-15T14:17:47.204Z,70.84
2019-03-15T14:20:15.784Z,70.53
2019-03-15T14:22:44.433Z,70.31
2019-03-15T14:25:18.543Z,70.56
2019-03-15T14:27:47.127Z,70.18
2019-03-15T14:30:15.837Z,71.08
2019-03-15T14:32:44.487Z,70.83
2019-03-15T14:35:13.135Z,70.18
2019-03-15T14:37:41.732Z,70.72
2019-03-15T14:40:11.755Z,71.18
2019-03-15T14:42:40.517Z,69.60
2019-03-15T14:45:11.509Z,70.43
2019-03-15T14:47:40.083Z,70.21
2019-03-15T14:50:10.211Z,71.13
2019-03-15T14:52:38.882Z,70.60
2019-03-15T14:55:09.826Z,70.61
2019-03-15T14:57:50.981Z,70.92
2019-03-15T15:00:16.879Z,70.54
2019-03-15T15:02:45.525Z,70.32
2019-03-15T15:05:14.184Z,70.48
2019-03-15T15:07:42.756Z,70.49
2019-03-15T15:10:16.267Z,70.29
2019-03-15T15:12:44.859Z,69.62
2019-03-15T15:15:14.689Z,70.08
2019-03-15T15:17:43.433Z,70.51
2019-03-15T15:20:12.678Z,69.75
2019-03-15T15:22:41.524Z,69.40
2019-03-15T15:25:12.785Z,70.46
2019-03-15T15:27:41.482Z,69.14
2019-03-15T15:30:12.553Z,70.21
2019-03-15T15:32:41.209Z,69.90
2019-03-15T15:35:11.597Z,70.55
2019-03-15T15:37:40.246Z,70.08
2019-03-15T15:40:13.227Z,70.43
2019-03-15T15:42:41.813Z,70.47
2019-03-15T15:45:11.739Z,71.05
2019-03-15T15:47:40.408Z,71.60
2019-03-15T15:50:10.609Z,74.19
2019-03-15T15:52:39.452Z,73.59
2019-03-15T15:55:10.236Z,74.50
2019-03-15T15:57:38.881Z,74.93
2019-03-15T16:00:16.738Z,74.89
2019-03-15T16:02:45.355Z,76.36
2019-03-15T16:05:14.139Z,76.32
2019-03-15T16:07:42.738Z,76.01
2019-03-15T16:10:17.712Z,76.66
2019-03-15T16:12:46.037Z,76.33
2019-03-15T16:15:16.033Z,77.26
2019-03-15T16:17:45.710Z,77.29
2019-03-15T16:20:14.753Z,78.48
2019-03-15T16:22:43.356Z,78.48
2019-03-15T16:25:12.517Z,78.41
2019-03-15T16:27:41.095Z,79.15
2019-03-15T16:30:17.657Z,79.21
2019-03-15T16:32:46.285Z,78.30
2019-03-15T16:35:15.305Z,78.47
2019-03-15T16:37:43.943Z,79.34
2019-03-15T16:40:13.990Z,79.89
2019-03-15T16:42:42.621Z,80.04
2019-03-15T16:45:22.661Z,80.70
2019-03-15T16:47:51.367Z,80.18
2019-03-15T16:50:19.878Z,80.65
2019-03-15T16:52:48.482Z,80.75
2019-03-15T16:55:17.325Z,80.03
2019-03-15T16:57:45.894Z,79.82
2019-03-15T17:00:16.256Z,80.02
2019-03-15T17:02:44.864Z,80.95
2019-03-15T17:05:14.220Z,83.17
2019-03-15T17:07:43.196Z,79.15
2019-03-15T17:10:14.752Z,79.21
2019-03-15T17:12:43.496Z,78.17
2019-03-15T17:15:20.418Z,78.71
2019-03-15T17:17:49.015Z,78.49
2019-03-15T17:20:17.819Z,78.09
2019-03-15T17:22:46.425Z,78.00
2019-03-15T17:25:15.029Z,77.43
2019-03-15T17:27:43.546Z,78.79
2019-03-15T17:30:15.769Z,77.60
2019-03-15T17:32:44.399Z,78.05
2019-03-15T17:35:14.581Z,78.49
2019-03-15T17:37:43.198Z,78.22
2019-03-15T17:40:17.429Z,77.53
2019-03-15T17:42:46.008Z,76.54
2019-03-15T17:45:14.651Z,74.78
2019-03-15T17:47:43.436Z,74.78
2019-03-15T17:50:19.481Z,74.44
2019-03-15T17:52:48.064Z,74.39
2019-03-15T17:55:17.743Z,74.13
2019-03-15T17:57:46.408Z,74.17
2019-03-15T18:00:25.290Z,73.51
2019-03-15T18:02:53.888Z,74.08
2019-03-15T18:05:22.542Z,74.55
2019-03-15T18:07:51.167Z,74.69
2019-03-15T18:10:19.842Z,78.70
2019-03-15T18:12:48.430Z,74.28
2019-03-15T18:15:17.094Z,73.78
2019-03-15T18:17:45.686Z,73.27
2019-03-15T18:20:14.402Z,73.13
2019-03-15T18:22:42.988Z,73.37
2019-03-15T18:25:11.883Z,74.10
2019-03-15T18:27:40.986Z,73.23
2019-03-15T18:30:14.990Z,74.04
2019-03-15T18:32:43.633Z,73.66
2019-03-15T18:35:12.529Z,73.21
2019-03-15T18:37:41.142Z,72.54
2019-03-15T18:40:20.488Z,72.80
2019-03-15T18:42:49.189Z,73.90
2019-03-15T18:45:18.375Z,79.50
2019-03-15T18:47:47.110Z,74.92
2019-03-15T18:50:28.405Z,71.83
2019-03-15T18:52:57.002Z,72.13
2019-03-15T18:55:25.613Z,73.13
2019-03-15T18:57:54.230Z,72.99
2019-03-15T19:00:24.136Z,73.60
2019-03-15T19:02:52.797Z,74.00
2019-03-15T19:05:21.420Z,74.28
2019-03-15T19:07:50.146Z,75.18
2019-03-15T19:10:18.753Z,75.61
2019-03-15T19:12:47.372Z,75.12
2019-03-15T19:15:18.989Z,76.41
2019-03-15T19:17:47.572Z,76.31
2019-03-15T19:20:16.904Z,77.94
2019-03-15T19:22:45.614Z,77.27
2019-03-15T19:25:15.433Z,74.58
2019-03-15T19:27:44.337Z,74.58
2019-03-15T19:30:15.028Z,74.29
2019-03-15T19:32:43.623Z,75.65
2019-03-15T19:35:12.418Z,75.33
2019-03-15T19:37:41.076Z,76.22
2019-03-15T19:40:12.193Z,76.22
2019-03-15T19:42:40.798Z,76.21
2019-03-15T19:45:11.825Z,76.82
2019-03-15T19:47:40.488Z,76.86
2019-03-15T19:50:20.201Z,76.64
2019-03-15T19:52:48.965Z,77.32
2019-03-15T19:55:17.778Z,78.44
2019-03-15T19:57:46.546Z,82.33
2019-03-15T20:00:21.242Z,76.93
2019-03-15T20:02:49.900Z,75.03
2019-03-15T20:05:18.513Z,76.44
2019-03-15T20:07:47.330Z,75.53
2019-03-15T20:10:17.314Z,76.18
2019-03-15T20:12:46.091Z,76.21
2019-03-15T20:15:16.817Z,76.67
2019-03-15T20:17:45.454Z,76.21
2019-03-15T20:20:15.381Z,76.54
2019-03-15T20:22:44.035Z,75.27
2019-03-15T20:25:16.003Z,75.94
2019-03-15T20:27:44.588Z,75.71
2019-03-15T20:30:21.526Z,75.98
2019-03-15T20:32:46.598Z,80.14
2019-03-15T20:35:15.272Z,74.83
2019-03-15T20:37:43.881Z,74.36
2019-03-15T20:40:14.434Z,73.74
2019-03-15T20:42:43.057Z,73.34
2019-03-15T20:45:20.261Z,74.09
2019-03-15T20:47:48.912Z,74.70
2019-03-15T20:50:17.537Z,73.69
2019-03-15T20:52:46.106Z,72.97
2019-03-15T20:55:14.705Z,73.58
2019-03-15T20:57:43.413Z,74.14
2019-03-15T21:00:16.585Z,73.85
2019-03-15T21:02:45.198Z,72.62
2019-03-15T21:05:14.185Z,73.88
2019-03-15T21:07:43.790Z,78.05
2019-03-15T21:10:14.627Z,72.99
2019-03-15T21:12:43.261Z,71.05
2019-03-15T21:15:13.292Z,70.95
2019-03-15T21:17:42.941Z,71.31
2019-03-15T21:20:14.407Z,72.15
2019-03-15T21:22:43.050Z,72.94
2019-03-15T21:25:11.766Z,72.53
2019-03-15T21:27:52.837Z,72.81
2019-03-15T21:30:22.092Z,72.32
2019-03-15T21:32:50.736Z,72.78
2019-03-15T21:35:19.326Z,72.31
2019-03-15T21:37:47.868Z,72.27
2019-03-15T21:40:20.726Z,73.71
2019-03-15T21:42:49.381Z,75.96
2019-03-15T21:45:18.012Z,73.89
2019-03-15T21:47:46.611Z,71.52
2019-03-15T21:50:22.170Z,72.25
2019-03-15T21:52:50.781Z,71.94
2019-03-15T21:55:19.410Z,71.29
2019-03-15T21:57:48.002Z,71.78
2019-03-15T22:00:20.113Z,71.93
2019-03-15T22:02:48.731Z,70.29
2019-03-15T22:05:17.304Z,72.14
2019-03-15T22:07:45.890Z,71.72
2019-03-15T22:10:15.067Z,70.91
2019-03-15T22:12:43.741Z,70.58
2019-03-15T22:15:13.329Z,71.24
2019-03-15T22:17:42.726Z,71.67
2019-03-15T22:20:16.213Z,71.23
2019-03-15T22:22:44.829Z,68.81
2019-03-15T22:25:13.434Z,69.04
2019-03-15T22:27:42.001Z,69.24
2019-03-15T22:30:16.247Z,69.98
2019-03-15T22:32:44.899Z,70.93
2019-03-15T22:35:13.475Z,69.92
2019-03-15T22:37:42.092Z,71.08
2019-03-15T22:40:12.660Z,70.98
2019-03-15T22:42:41.292Z,70.65
2019-03-15T22:45:11.295Z,70.99
2019-03-15T22:47:39.887Z,71.54
2019-03-15T22:50:10.912Z,71.64
2019-03-15T22:52:39.481Z,72.20
2019-03-15T22:55:10.024Z,73.77
2019-03-15T22:57:39.042Z,71.20
2019-03-15T23:00:18.349Z,70.64
2019-03-15T23:02:46.961Z,69.75
2019-03-15T23:05:15.507Z,70.53
2019-03-15T23:07:44.091Z,70.56
2019-03-15T23:10:12.674Z,72.23
2019-03-15T23:12:41.262Z,72.29
2019-03-15T23:15:11.090Z,72.17
2019-03-15T23:17:39.656Z,71.74
2019-03-15T23:20:13.728Z,71.54
2019-03-15T23:22:42.309Z,71.63
2019-03-15T23:25:11.414Z,72.47
2019-03-15T23:27:39.962Z,72.77
2019-03-15T23:30:13.383Z,74.17
2019-03-15T23:32:41.926Z,70.93
2019-03-15T23:35:11.527Z,70.66
2019-03-15T23:37:40.197Z,70.66
2019-03-15T23:40:16.341Z,70.31
2019-03-15T23:42:44.974Z,71.17
2019-03-15T23:45:13.577Z,71.29
2019-03-15T23:47:42.131Z,71.16
2019-03-15T23:50:13.741Z,71.33
2019-03-15T23:52:42.375Z,72.74
2019-03-15T23:55:12.052Z,71.08
2019-03-15T23:57:40.735Z,71.20
